Time;durP1;ratioP1;P1;durP2;ratioP2;P2;SDS_P1;SDS_P2;PMS_P1;PMS_P2;Temp;Humidity;BMP_temperature;BMP_pressure;BME280_temperature;BME280_humidity;BME280_pressure;Samples;Min_cycle;Max_cycle;Signal;HPM_P1;HPM_P2
2022/09/06 00:00:10;;;;;;;16.83;4.30;;;;;;;;;;4966513;28;20105;-67
2022/09/06 00:02:53;;;;;;;19.05;4.70;;;;;;;;;;4966654;28;20473;-66
2022/09/06 00:05:19;;;;;;;15.23;5.00;;;;;;;;;;4961722;28;20106;-66
2022/09/06 00:07:45;;;;;;;11.90;4.53;;;;;;;;;;4963033;28;20239;-66
2022/09/06 00:10:11;;;;;;;11.85;4.70;;;;;;;;;;4962542;28;20376;-67
2022/09/06 00:12:37;;;;;;;15.10;5.03;;;;;;;;;;4967203;28;20527;-66
2022/09/06 00:15:04;;;;;;;20.50;4.88;;;;;;;;;;4964778;28;20051;-67
2022/09/06 00:17:31;;;;;;;23.45;5.30;;;;;;;;;;4963577;28;20097;-69
2022/09/06 00:19:57;;;;;;;15.90;5.97;;;;;;;;;;4965748;28;20050;-66
2022/09/06 00:22:23;;;;;;;16.10;5.95;;;;;;;;;;4964316;28;20046;-67
2022/09/06 00:24:49;;;;;;;16.95;5.45;;;;;;;;;;4979161;28;20433;-66
2022/09/06 00:27:15;;;;;;;15.65;5.30;;;;;;;;;;4964592;28;20058;-65
2022/09/06 00:29:41;;;;;;;15.48;5.63;;;;;;;;;;4964588;28;20051;-66
2022/09/06 00:32:07;;;;;;;14.15;5.38;;;;;;;;;;4965035;28;20452;-65
2022/09/06 00:34:33;;;;;;;11.52;5.28;;;;;;;;;;4967888;28;20077;-66
2022/09/06 00:36:59;;;;;;;16.48;5.00;;;;;;;;;;4966782;28;20039;-66
2022/09/06 00:39:25;;;;;;;19.35;4.65;;;;;;;;;;4963948;28;20134;-67
2022/09/06 00:41:51;;;;;;;20.38;5.85;;;;;;;;;;4964114;28;20057;-65
2022/09/06 00:44:17;;;;;;;10.88;5.20;;;;;;;;;;4963294;28;20056;-65
2022/09/06 00:46:45;;;;;;;13.52;4.63;;;;;;;;;;4963390;28;20054;-66
2022/09/06 00:49:27;;;;;;;10.00;4.55;;;;;;;;;;4963765;28;20066;-66
2022/09/06 00:52:00;;;;;;;15.93;4.93;;;;;;;;;;4965698;28;20061;-64
2022/09/06 00:54:26;;;;;;;13.93;4.53;;;;;;;;;;4963004;28;20058;-65
2022/09/06 00:56:54;;;;;;;13.25;4.57;;;;;;;;;;4965559;28;20074;-66
2022/09/06 00:59:20;;;;;;;10.80;4.07;;;;;;;;;;4966183;28;20051;-67
2022/09/06 01:01:46;;;;;;;19.23;4.70;;;;;;;;;;4962804;28;20117;-65
2022/09/06 01:04:13;;;;;;;16.67;4.40;;;;;;;;;;4960968;28;20078;-66
2022/09/06 01:07:05;;;;;;;13.55;4.70;;;;;;;;;;4960703;28;20062;-65
2022/09/06 01:09:37;;;;;;;14.30;4.80;;;;;;;;;;4967425;28;20058;-67
2022/09/06 01:12:24;;;;;;;21.17;6.85;;;;;;;;;;4961757;28;20106;-66
2022/09/06 01:15:40;;;;;;;21.58;7.20;;;;;;;;;;4961928;28;20289;-66
2022/09/06 01:18:36;;;;;;;19.73;7.50;;;;;;;;;;4931369;28;20143;-65
2022/09/06 01:21:23;;;;;;;17.85;6.90;;;;;;;;;;4935035;28;20082;-66
2022/09/06 01:24:10;;;;;;;16.73;6.32;;;;;;;;;;4935992;28;20516;-66
2022/09/06 01:27:15;;;;;;;17.50;6.00;;;;;;;;;;4929025;28;20181;-66
2022/09/06 01:29:47;;;;;;;15.27;5.70;;;;;;;;;;4929504;28;20047;-65
2022/09/06 01:32:22;;;;;;;13.98;5.28;;;;;;;;;;4932919;28;20632;-64
2022/09/06 01:34:54;;;;;;;17.67;5.60;;;;;;;;;;4934547;28;20081;-64
2022/09/06 01:37:22;;;;;;;14.48;4.75;;;;;;;;;;4931874;28;20070;-64
2022/09/06 01:39:48;;;;;;;11.75;4.57;;;;;;;;;;4933386;28;20154;-63
2022/09/06 01:42:21;;;;;;;14.30;4.60;;;;;;;;;;4932246;28;20051;-65
2022/09/06 01:45:13;;;;;;;19.85;5.57;;;;;;;;;;4931484;28;20051;-63
2022/09/06 01:48:30;;;;;;;14.50;4.60;;;;;;;;;;4928249;28;20112;-65
2022/09/06 01:51:04;;;;;;;17.52;4.65;;;;;;;;;;4877938;29;20068;-66
2022/09/06 01:53:39;;;;;;;13.00;4.30;;;;;;;;;;4863992;29;20053;-67
2022/09/06 01:56:31;;;;;;;13.68;5.05;;;;;;;;;;4862800;29;20506;-65
2022/09/06 01:59:06;;;;;;;16.02;4.95;;;;;;;;;;4866671;29;20063;-65
2022/09/06 02:01:38;;;;;;;13.02;5.10;;;;;;;;;;4864506;29;20488;-65
2022/09/06 02:04:33;;;;;;;13.60;6.15;;;;;;;;;;4861629;29;20057;-66
2022/09/06 02:07:09;;;;;;;16.83;6.32;;;;;;;;;;4859811;29;20535;-66
2022/09/06 02:09:41;;;;;;;18.42;6.45;;;;;;;;;;4863513;29;20059;-64
2022/09/06 02:12:12;;;;;;;13.23;5.88;;;;;;;;;;4864293;29;20053;-65
2022/09/06 02:14:39;;;;;;;12.82;5.88;;;;;;;;;;4861535;29;20271;-65
2022/09/06 02:17:10;;;;;;;10.75;4.95;;;;;;;;;;4863957;29;20049;-65
2022/09/06 02:20:01;;;;;;;18.33;5.40;;;;;;;;;;4867945;29;20844;-65
2022/09/06 02:22:31;;;;;;;14.50;4.18;;;;;;;;;;4863011;29;20095;-68
2022/09/06 02:25:00;;;;;;;19.05;4.85;;;;;;;;;;4863975;29;20208;-69
2022/09/06 02:27:26;;;;;;;17.48;4.80;;;;;;;;;;4947636;28;20053;-64
2022/09/06 02:29:52;;;;;;;14.55;4.72;;;;;;;;;;4962746;28;20129;-65
2022/09/06 02:32:23;;;;;;;15.90;4.53;;;;;;;;;;4960798;28;20496;-65
2022/09/06 02:34:51;;;;;;;15.18;4.15;;;;;;;;;;4963597;28;20153;-65
2022/09/06 02:37:18;;;;;;;14.50;4.40;;;;;;;;;;4962979;28;20268;-66
2022/09/06 02:39:44;;;;;;;19.60;4.47;;;;;;;;;;4969263;28;20347;-66
2022/09/06 02:42:12;;;;;;;13.38;4.15;;;;;;;;;;4963057;28;20053;-66
2022/09/06 02:44:38;;;;;;;12.05;4.15;;;;;;;;;;4959899;28;20061;-66
2022/09/06 02:47:04;;;;;;;12.90;3.72;;;;;;;;;;4967498;28;20469;-66
2022/09/06 02:49:30;;;;;;;14.93;3.78;;;;;;;;;;4958541;28;20047;-65
2022/09/06 02:51:56;;;;;;;11.25;3.60;;;;;;;;;;4963740;28;20441;-66
2022/09/06 02:54:22;;;;;;;11.07;3.90;;;;;;;;;;4960546;28;20373;-65
2022/09/06 02:56:48;;;;;;;12.65;3.58;;;;;;;;;;4961764;28;20043;-65
2022/09/06 02:59:14;;;;;;;12.77;4.03;;;;;;;;;;4945327;28;20047;-65
2022/09/06 03:01:40;;;;;;;8.68;4.18;;;;;;;;;;4963862;28;20121;-66
2022/09/06 03:04:07;;;;;;;17.38;4.03;;;;;;;;;;4962539;28;20067;-66
2022/09/06 03:06:34;;;;;;;11.85;3.80;;;;;;;;;;4963697;28;20055;-66
2022/09/06 03:09:00;;;;;;;11.07;3.55;;;;;;;;;;4965905;28;20107;-66
2022/09/06 03:11:26;;;;;;;10.82;4.00;;;;;;;;;;4962388;28;20451;-65
2022/09/06 03:13:52;;;;;;;11.70;4.28;;;;;;;;;;4961651;28;20523;-66
2022/09/06 03:16:18;;;;;;;13.88;4.03;;;;;;;;;;4962411;28;20050;-65
2022/09/06 03:18:45;;;;;;;9.55;3.58;;;;;;;;;;4960608;28;20465;-66
2022/09/06 03:21:12;;;;;;;13.60;3.83;;;;;;;;;;4962139;28;20127;-65
2022/09/06 03:23:40;;;;;;;11.55;4.07;;;;;;;;;;4962746;28;20516;-66
2022/09/06 03:26:06;;;;;;;14.27;3.33;;;;;;;;;;4962412;28;21999;-65
2022/09/06 03:28:33;;;;;;;9.77;3.22;;;;;;;;;;4961650;28;20047;-65
2022/09/06 03:30:59;;;;;;;12.45;3.47;;;;;;;;;;4961919;28;20116;-64
2022/09/06 03:33:24;;;;;;;8.43;3.25;;;;;;;;;;4962609;28;20058;-65
2022/09/06 03:35:53;;;;;;;13.07;2.97;;;;;;;;;;4961215;28;20536;-63
2022/09/06 03:38:20;;;;;;;9.18;3.15;;;;;;;;;;4962827;28;20047;-64
2022/09/06 03:40:47;;;;;;;10.20;3.17;;;;;;;;;;4962601;28;20054;-65
2022/09/06 03:43:15;;;;;;;15.82;3.10;;;;;;;;;;4962357;28;20043;-64
2022/09/06 03:45:52;;;;;;;10.93;3.20;;;;;;;;;;4960112;28;20101;-64
2022/09/06 03:48:20;;;;;;;9.07;2.80;;;;;;;;;;4962596;28;20074;-64
2022/09/06 03:50:49;;;;;;;12.10;2.85;;;;;;;;;;4964803;28;20130;-65
2022/09/06 03:53:16;;;;;;;10.18;3.30;;;;;;;;;;4964814;28;20328;-65
2022/09/06 03:55:47;;;;;;;8.30;3.00;;;;;;;;;;4946393;28;20053;-64
2022/09/06 03:58:13;;;;;;;10.00;2.83;;;;;;;;;;4963123;28;20054;-64
2022/09/06 04:00:40;;;;;;;13.00;2.72;;;;;;;;;;4962417;28;20054;-64
2022/09/06 04:03:06;;;;;;;10.50;2.55;;;;;;;;;;4965880;28;20051;-65
2022/09/06 04:05:32;;;;;;;11.05;2.95;;;;;;;;;;4964251;28;20053;-65
2022/09/06 04:07:57;;;;;;;10.02;2.75;;;;;;;;;;4966278;28;20133;-65
2022/09/06 04:10:23;;;;;;;7.22;2.33;;;;;;;;;;4965908;28;20426;-65
2022/09/06 04:12:49;;;;;;;8.27;2.58;;;;;;;;;;4965366;28;20046;-65
2022/09/06 04:15:15;;;;;;;6.70;2.28;;;;;;;;;;4959545;28;20078;-64
2022/09/06 04:17:45;;;;;;;6.75;2.38;;;;;;;;;;4965065;28;20054;-65
2022/09/06 04:20:15;;;;;;;10.15;2.60;;;;;;;;;;4964472;28;20074;-65
2022/09/06 04:22:41;;;;;;;6.75;2.28;;;;;;;;;;4965414;28;20138;-66
2022/09/06 04:25:07;;;;;;;7.68;2.67;;;;;;;;;;4964094;28;20074;-65
2022/09/06 04:27:33;;;;;;;9.32;2.78;;;;;;;;;;4967582;28;20492;-65
2022/09/06 04:29:59;;;;;;;8.23;2.65;;;;;;;;;;4966880;28;20082;-65
2022/09/06 04:32:25;;;;;;;7.93;2.78;;;;;;;;;;4967345;28;20685;-64
2022/09/06 04:34:51;;;;;;;6.57;2.30;;;;;;;;;;4964992;28;20046;-64
2022/09/06 04:37:18;;;;;;;9.70;2.40;;;;;;;;;;4966969;28;20051;-66
2022/09/06 04:39:45;;;;;;;7.95;2.70;;;;;;;;;;4965495;28;20050;-63
2022/09/06 04:42:11;;;;;;;5.85;2.15;;;;;;;;;;4966546;28;20047;-64
2022/09/06 04:44:37;;;;;;;11.95;2.75;;;;;;;;;;4964731;28;20050;-65
2022/09/06 04:47:08;;;;;;;14.27;3.10;;;;;;;;;;4967574;28;20050;-65
2022/09/06 04:49:34;;;;;;;7.10;2.88;;;;;;;;;;4968462;28;20069;-66
2022/09/06 04:52:00;;;;;;;8.35;3.08;;;;;;;;;;4966441;28;20074;-64
2022/09/06 04:54:26;;;;;;;15.95;3.47;;;;;;;;;;4965578;28;20047;-64
2022/09/06 04:56:52;;;;;;;9.45;3.22;;;;;;;;;;4965957;28;20051;-64
2022/09/06 04:59:17;;;;;;;13.48;3.38;;;;;;;;;;4965367;28;20527;-65
2022/09/06 05:01:43;;;;;;;12.63;3.75;;;;;;;;;;4964067;28;20051;-65
2022/09/06 05:04:09;;;;;;;10.85;3.50;;;;;;;;;;4959199;28;20047;-65
2022/09/06 05:06:35;;;;;;;7.43;3.55;;;;;;;;;;4964647;28;20053;-64
2022/09/06 05:09:01;;;;;;;11.85;3.63;;;;;;;;;;4962083;28;20169;-65
2022/09/06 05:11:27;;;;;;;14.50;3.75;;;;;;;;;;4964435;28;20125;-64
2022/09/06 05:13:53;;;;;;;11.65;4.22;;;;;;;;;;4962771;28;20491;-64
2022/09/06 05:16:20;;;;;;;13.18;3.83;;;;;;;;;;4962659;28;20050;-65
2022/09/06 05:18:45;;;;;;;11.90;4.47;;;;;;;;;;4963499;28;20049;-65
2022/09/06 05:21:11;;;;;;;10.55;4.18;;;;;;;;;;4964033;28;20042;-64
2022/09/06 05:23:37;;;;;;;13.13;4.55;;;;;;;;;;4965493;28;20038;-64
2022/09/06 05:26:03;;;;;;;8.35;4.60;;;;;;;;;;4961629;28;20113;-67
2022/09/06 05:28:29;;;;;;;14.45;4.45;;;;;;;;;;4962143;28;20705;-62
2022/09/06 05:31:13;;;;;;;9.27;3.83;;;;;;;;;;4964093;28;20059;-65
2022/09/06 05:33:38;;;;;;;10.32;4.38;;;;;;;;;;4959687;28;20055;-63
2022/09/06 05:36:05;;;;;;;9.25;4.00;;;;;;;;;;4961806;28;20051;-64
2022/09/06 05:38:31;;;;;;;10.18;4.00;;;;;;;;;;4964152;28;20043;-64
2022/09/06 05:40:57;;;;;;;13.15;4.15;;;;;;;;;;4965239;28;20066;-63
2022/09/06 05:43:23;;;;;;;11.60;3.80;;;;;;;;;;4960771;28;20058;-65
2022/09/06 05:45:50;;;;;;;20.70;4.80;;;;;;;;;;4959869;28;20825;-63
2022/09/06 05:48:16;;;;;;;22.65;4.55;;;;;;;;;;4960638;28;20058;-63
2022/09/06 05:50:42;;;;;;;18.05;4.43;;;;;;;;;;4960790;28;20057;-62
2022/09/06 05:53:07;;;;;;;16.95;4.80;;;;;;;;;;4962558;28;20047;-63
2022/09/06 05:55:33;;;;;;;12.55;4.32;;;;;;;;;;4962466;28;20051;-65
2022/09/06 05:57:59;;;;;;;20.83;4.57;;;;;;;;;;4966578;28;20113;-63
2022/09/06 06:00:25;;;;;;;16.17;3.97;;;;;;;;;;4960523;28;20577;-63
2022/09/06 06:02:51;;;;;;;15.20;4.00;;;;;;;;;;4965273;28;20065;-65
2022/09/06 06:05:17;;;;;;;11.32;4.50;;;;;;;;;;4959073;28;20055;-66
2022/09/06 06:07:43;;;;;;;13.88;4.18;;;;;;;;;;4962415;28;20128;-65
2022/09/06 06:10:09;;;;;;;13.30;3.50;;;;;;;;;;4963123;28;20081;-65
2022/09/06 06:12:35;;;;;;;16.17;3.42;;;;;;;;;;4969030;28;20050;-65
2022/09/06 06:15:01;;;;;;;7.50;3.17;;;;;;;;;;4961341;28;20069;-66
2022/09/06 06:17:27;;;;;;;15.07;3.58;;;;;;;;;;4961703;28;20161;-65
2022/09/06 06:19:53;;;;;;;11.25;4.72;;;;;;;;;;4961908;28;20051;-65
2022/09/06 06:22:19;;;;;;;21.67;7.15;;;;;;;;;;4961689;28;20072;-65
2022/09/06 06:24:45;;;;;;;17.48;5.20;;;;;;;;;;4960408;28;20104;-65
2022/09/06 06:27:11;;;;;;;23.98;4.15;;;;;;;;;;4958082;28;20063;-66
2022/09/06 06:29:37;;;;;;;15.32;4.30;;;;;;;;;;4957740;28;20563;-66
2022/09/06 06:32:02;;;;;;;23.80;4.32;;;;;;;;;;4946918;28;20576;-66
2022/09/06 06:34:28;;;;;;;14.98;4.07;;;;;;;;;;4944788;28;20435;-65
2022/09/06 06:36:54;;;;;;;13.50;3.97;;;;;;;;;;4977017;28;20054;-66
2022/09/06 06:39:20;;;;;;;18.20;4.93;;;;;;;;;;4958648;28;20137;-65
2022/09/06 06:41:48;;;;;;;14.30;5.10;;;;;;;;;;4961523;28;20054;-64
2022/09/06 06:44:13;;;;;;;14.02;3.83;;;;;;;;;;4960502;28;20425;-65
2022/09/06 06:46:40;;;;;;;17.80;3.60;;;;;;;;;;4960257;28;20057;-66
2022/09/06 06:49:06;;;;;;;11.40;3.72;;;;;;;;;;4959292;28;20069;-67
2022/09/06 06:51:36;;;;;;;16.48;4.28;;;;;;;;;;4961722;28;20578;-68
2022/09/06 06:54:03;;;;;;;14.00;4.18;;;;;;;;;;4960308;28;20504;-67
2022/09/06 06:56:33;;;;;;;11.10;3.85;;;;;;;;;;4961195;28;20137;-68
2022/09/06 06:59:01;;;;;;;12.70;4.20;;;;;;;;;;4959456;28;20058;-68
2022/09/06 07:01:29;;;;;;;20.67;5.18;;;;;;;;;;4960645;28;20059;-65
2022/09/06 07:03:55;;;;;;;18.83;3.97;;;;;;;;;;4961030;28;20501;-66
2022/09/06 07:06:21;;;;;;;17.10;5.90;;;;;;;;;;4958327;28;20046;-67
2022/09/06 07:08:48;;;;;;;17.02;4.93;;;;;;;;;;4963573;28;20050;-72
2022/09/06 07:11:16;;;;;;;16.30;4.30;;;;;;;;;;4961814;28;20643;-66
2022/09/06 07:13:42;;;;;;;18.70;4.32;;;;;;;;;;4952270;28;20059;-64
2022/09/06 07:16:14;;;;;;;17.02;4.35;;;;;;;;;;4962198;28;20122;-67
2022/09/06 07:18:41;;;;;;;12.57;3.90;;;;;;;;;;4962367;28;20054;-66
2022/09/06 07:21:14;;;;;;;19.10;3.90;;;;;;;;;;4957716;28;20142;-63
2022/09/06 07:23:41;;;;;;;17.25;3.88;;;;;;;;;;4968708;28;20053;-69
2022/09/06 07:26:12;;;;;;;13.07;4.10;;;;;;;;;;4963741;28;20065;-67
2022/09/06 07:28:38;;;;;;;22.40;4.53;;;;;;;;;;4957180;28;20213;-68
2022/09/06 07:31:04;;;;;;;16.58;4.20;;;;;;;;;;4956237;28;20481;-68
2022/09/06 07:33:30;;;;;;;17.33;4.75;;;;;;;;;;4962542;28;20051;-70
2022/09/06 07:36:00;;;;;;;14.93;4.60;;;;;;;;;;4968996;28;20046;-66
2022/09/06 07:38:28;;;;;;;23.20;4.72;;;;;;;;;;4971414;28;20074;-70
2022/09/06 07:40:56;;;;;;;19.65;4.15;;;;;;;;;;4950552;28;20172;-68
2022/09/06 07:43:22;;;;;;;14.00;3.88;;;;;;;;;;4969129;28;20046;-71
2022/09/06 07:45:56;;;;;;;10.35;3.67;;;;;;;;;;4968416;28;20409;-68
2022/09/06 07:48:22;;;;;;;;;;;;;;;;;;4952854;28;20157;-67
2022/09/06 07:50:48;;;;;;;15.13;3.22;;;;;;;;;;4966303;28;19970;-68
2022/09/06 07:53:13;;;;;;;9.48;2.85;;;;;;;;;;4970377;28;20501;-68
2022/09/06 07:55:39;;;;;;;7.93;2.65;;;;;;;;;;4970120;28;20158;-68
2022/09/06 07:58:05;;;;;;;8.98;3.03;;;;;;;;;;4970444;28;20090;-69
2022/09/06 08:00:31;;;;;;;13.20;2.70;;;;;;;;;;4973795;28;20047;-68
2022/09/06 08:02:57;;;;;;;12.65;2.88;;;;;;;;;;4960334;28;20059;-69
2022/09/06 08:05:23;;;;;;;9.43;3.00;;;;;;;;;;4962559;28;20039;-70
2022/09/06 08:07:49;;;;;;;13.02;2.78;;;;;;;;;;4970388;28;20141;-68
2022/09/06 08:10:15;;;;;;;12.35;3.08;;;;;;;;;;4966614;28;20055;-67
2022/09/06 08:12:41;;;;;;;12.73;2.90;;;;;;;;;;4958664;28;20496;-69
2022/09/06 08:15:07;;;;;;;12.88;3.47;;;;;;;;;;4969190;28;20059;-69
2022/09/06 08:17:34;;;;;;;8.13;3.25;;;;;;;;;;4969030;28;20046;-70
2022/09/06 08:20:03;;;;;;;14.90;3.72;;;;;;;;;;4969833;28;20113;-69
2022/09/06 08:22:32;;;;;;;14.35;3.70;;;;;;;;;;4969922;28;20043;-68
2022/09/06 08:24:59;;;;;;;18.13;3.65;;;;;;;;;;4969233;28;20066;-68
2022/09/06 08:27:24;;;;;;;11.50;3.70;;;;;;;;;;4965531;28;20039;-68
2022/09/06 08:29:50;;;;;;;9.55;3.25;;;;;;;;;;4968240;28;20508;-66
2022/09/06 08:32:18;;;;;;;11.18;2.67;;;;;;;;;;4956741;28;20156;-68
2022/09/06 08:34:43;;;;;;;16.08;2.80;;;;;;;;;;4966857;28;20650;-70
2022/09/06 08:37:09;;;;;;;11.23;3.20;;;;;;;;;;4967366;28;20105;-69
2022/09/06 08:39:35;;;;;;;9.75;2.72;;;;;;;;;;4951261;28;20503;-68
2022/09/06 08:42:04;;;;;;;5.57;2.50;;;;;;;;;;4968235;28;20051;-65
2022/09/06 08:44:38;;;;;;;9.00;2.65;;;;;;;;;;4967009;28;20046;-67
2022/09/06 08:47:06;;;;;;;;;;;;;;;;;;4967507;28;20297;-67
2022/09/06 08:49:44;;;;;;;10.55;2.80;;;;;;;;;;4969409;28;19933;-67
2022/09/06 08:52:52;;;;;;;6.03;2.63;;;;;;;;;;4968608;28;20413;-69
2022/09/06 08:55:52;;;;;;;9.52;3.25;;;;;;;;;;4961611;28;20063;-66
2022/09/06 08:58:36;;;;;;;13.23;3.28;;;;;;;;;;4969874;28;20060;-68
2022/09/06 09:01:14;;;;;;;11.25;2.95;;;;;;;;;;4960663;28;20050;-67
2022/09/06 09:03:42;;;;;;;21.88;3.45;;;;;;;;;;4967840;28;20059;-68
2022/09/06 09:06:09;;;;;;;11.65;2.92;;;;;;;;;;4966458;28;20050;-69
2022/09/06 09:08:40;;;;;;;17.13;2.80;;;;;;;;;;4965083;28;20056;-68
2022/09/06 09:11:24;;;;;;;10.98;2.78;;;;;;;;;;4963844;28;20047;-68
2022/09/06 09:13:52;;;;;;;;;;;;;;;;;;4966716;28;20055;-64
2022/09/06 09:16:19;;;;;;;8.32;2.00;;;;;;;;;;4964638;28;19925;-68
2022/09/06 09:18:50;;;;;;;13.85;2.90;;;;;;;;;;4962741;28;20093;-72
2022/09/06 09:21:22;;;;;;;19.90;2.80;;;;;;;;;;4950363;28;20138;-71
2022/09/06 09:23:53;;;;;;;11.38;2.80;;;;;;;;;;4964898;28;20490;-74
2022/09/06 09:26:21;;;;;;;14.20;2.40;;;;;;;;;;4967820;28;20104;-69
2022/09/06 09:29:16;;;;;;;5.82;2.15;;;;;;;;;;4965124;28;20058;-70
2022/09/06 09:31:52;;;;;;;10.15;2.10;;;;;;;;;;4954564;28;20051;-72
2022/09/06 09:34:33;;;;;;;8.23;2.50;;;;;;;;;;4970346;28;20552;-75
2022/09/06 09:37:22;;;;;;;9.60;2.38;;;;;;;;;;4970674;28;20054;-73
2022/09/06 09:39:51;;;;;;;8.65;2.17;;;;;;;;;;4963120;28;20053;-73
2022/09/06 09:42:28;;;;;;;8.95;2.00;;;;;;;;;;4969507;28;20057;-72
2022/09/06 09:44:56;;;;;;;11.43;2.30;;;;;;;;;;4967344;28;20051;-74
2022/09/06 09:47:31;;;;;;;12.02;2.22;;;;;;;;;;4958055;28;20051;-71
2022/09/06 09:49:57;;;;;;;11.48;2.10;;;;;;;;;;4967618;28;20054;-71
2022/09/06 09:52:31;;;;;;;6.15;2.20;;;;;;;;;;4967822;28;20057;-70
2022/09/06 09:55:01;;;;;;;13.98;2.28;;;;;;;;;;4966437;28;20039;-72
2022/09/06 09:57:30;;;;;;;13.43;2.45;;;;;;;;;;4967900;28;20057;-73
2022/09/06 09:59:59;;;;;;;7.53;2.10;;;;;;;;;;4954553;28;20042;-70
2022/09/06 10:02:35;;;;;;;10.30;2.03;;;;;;;;;;4968105;28;20130;-73
2022/09/06 10:05:10;;;;;;;12.48;2.00;;;;;;;;;;4958644;28;20133;-72
2022/09/06 10:07:52;;;;;;;7.68;1.98;;;;;;;;;;4961883;28;20141;-72
2022/09/06 10:10:22;;;;;;;8.65;2.22;;;;;;;;;;4965087;28;20043;-72
2022/09/06 10:13:04;;;;;;;10.40;2.25;;;;;;;;;;4959225;28;20093;-74
2022/09/06 10:15:36;;;;;;;10.13;2.60;;;;;;;;;;4952418;28;20061;-71
2022/09/06 10:18:03;;;;;;;13.60;2.63;;;;;;;;;;4964990;28;20054;-74
2022/09/06 10:20:46;;;;;;;15.57;2.70;;;;;;;;;;4968378;28;20109;-74
2022/09/06 10:23:40;;;;;;;7.57;2.10;;;;;;;;;;4968971;28;20597;-75
2022/09/06 10:26:29;;;;;;;12.50;2.20;;;;;;;;;;4963106;28;20424;-75
2022/09/06 10:29:04;;;;;;;11.45;2.20;;;;;;;;;;4968852;28;20057;-75
2022/09/06 10:31:35;;;;;;;8.23;2.20;;;;;;;;;;4967960;28;20051;-78
2022/09/06 10:34:10;;;;;;;17.48;2.40;;;;;;;;;;4972763;28;20053;-78
2022/09/06 10:36:39;;;;;;;10.25;2.38;;;;;;;;;;4977305;28;20050;-72
2022/09/06 10:39:17;;;;;;;7.20;2.22;;;;;;;;;;4969318;28;20058;-75
2022/09/06 10:42:09;;;;;;;12.57;2.75;;;;;;;;;;4967791;28;20066;-73
2022/09/06 10:45:10;;;;;;;11.27;2.90;;;;;;;;;;4964381;28;20090;-73
2022/09/06 10:47:56;;;;;;;14.07;3.22;;;;;;;;;;4973796;28;20054;-76
2022/09/06 10:50:44;;;;;;;14.23;3.22;;;;;;;;;;4962748;28;20050;-72
2022/09/06 10:53:32;;;;;;;14.30;3.28;;;;;;;;;;4960117;28;20070;-75
2022/09/06 10:56:06;;;;;;;18.73;2.90;;;;;;;;;;4945440;28;20114;-73
2022/09/06 10:59:10;;;;;;;;;;;;;;;;;;4968027;28;20457;-72
2022/09/06 11:01:41;;;;;;;11.40;2.63;;;;;;;;;;4921150;29;19950;-71
2022/09/06 11:04:38;;;;;;;11.32;3.00;;;;;;;;;;4920978;29;20516;-75
2022/09/06 11:07:18;;;;;;;12.45;2.67;;;;;;;;;;4905023;29;20059;-76
2022/09/06 11:09:47;;;;;;;10.82;2.58;;;;;;;;;;4919962;29;20417;-76
2022/09/06 11:12:35;;;;;;;10.80;2.63;;;;;;;;;;4930315;29;20043;-72
2022/09/06 11:15:04;;;;;;;6.28;2.42;;;;;;;;;;4916046;29;20131;-72
2022/09/06 11:17:39;;;;;;;12.05;2.42;;;;;;;;;;4925658;29;20085;-73
2022/09/06 11:20:13;;;;;;;7.85;2.10;;;;;;;;;;4911333;29;20084;-74
2022/09/06 11:23:13;;;;;;;8.63;2.45;;;;;;;;;;4927129;29;20403;-72
2022/09/06 11:25:48;;;;;;;12.23;2.70;;;;;;;;;;4922873;29;20498;-74
2022/09/06 11:28:18;;;;;;;6.03;2.45;;;;;;;;;;4926091;29;20048;-72
2022/09/06 11:30:47;;;;;;;9.73;2.58;;;;;;;;;;4926721;29;20409;-70
2022/09/06 11:33:34;;;;;;;8.85;2.72;;;;;;;;;;4956685;28;20046;-70
2022/09/06 11:36:24;;;;;;;10.55;2.55;;;;;;;;;;4943018;28;20054;-72
2022/09/06 11:38:56;;;;;;;7.85;2.40;;;;;;;;;;4964652;28;20065;-72
2022/09/06 11:41:36;;;;;;;17.77;2.67;;;;;;;;;;4964755;28;20039;-71
2022/09/06 11:44:03;;;;;;;8.70;2.47;;;;;;;;;;4965294;28;20046;-69
2022/09/06 11:46:32;;;;;;;5.95;2.40;;;;;;;;;;4960717;28;20058;-72
2022/09/06 11:49:01;;;;;;;10.93;2.90;;;;;;;;;;4959990;28;20048;-74
2022/09/06 11:51:37;;;;;;;5.88;2.30;;;;;;;;;;4963212;28;20053;-72
2022/09/06 11:54:24;;;;;;;13.70;2.72;;;;;;;;;;4965024;28;20732;-76
2022/09/06 11:57:08;;;;;;;10.05;2.50;;;;;;;;;;4963135;28;20078;-74
2022/09/06 11:59:40;;;;;;;12.43;2.50;;;;;;;;;;4964289;28;20402;-73
2022/09/06 12:02:32;;;;;;;4.75;2.28;;;;;;;;;;4964942;28;20047;-73
2022/09/06 12:04:59;;;;;;;5.53;2.53;;;;;;;;;;4965160;28;20058;-71
2022/09/06 12:07:26;;;;;;;10.50;2.50;;;;;;;;;;4965110;28;20488;-73
2022/09/06 12:09:53;;;;;;;9.98;2.05;;;;;;;;;;4965215;28;20050;-72
2022/09/06 12:12:40;;;;;;;10.52;2.90;;;;;;;;;;4968850;28;20053;-75
2022/09/06 12:15:43;;;;;;;9.57;2.63;;;;;;;;;;4969131;28;20047;-75
2022/09/06 12:18:29;;;;;;;8.95;3.00;;;;;;;;;;4977359;28;20488;-74
2022/09/06 12:20:55;;;;;;;7.03;2.53;;;;;;;;;;4958977;28;20607;-74
2022/09/06 12:23:33;;;;;;;7.93;3.00;;;;;;;;;;4968141;28;20130;-73
2022/09/06 12:26:06;;;;;;;11.23;2.67;;;;;;;;;;4966656;28;20594;-77
2022/09/06 12:28:38;;;;;;;;;;;;;;;;;;4970516;28;20101;-72
2022/09/06 12:31:52;;;;;;;7.88;2.92;;;;;;;;;;4964697;28;19932;-70
2022/09/06 12:34:27;;;;;;;8.45;2.78;;;;;;;;;;4964321;28;20064;-73
2022/09/06 12:36:56;;;;;;;7.53;2.40;;;;;;;;;;4966486;28;20051;-74
2022/09/06 12:39:23;;;;;;;11.93;2.75;;;;;;;;;;4967881;28;20078;-74
2022/09/06 12:41:56;;;;;;;5.63;2.08;;;;;;;;;;4969509;28;20360;-72
2022/09/06 12:44:34;;;;;;;8.82;2.38;;;;;;;;;;4972424;28;20368;-73
2022/09/06 12:47:10;;;;;;;7.60;2.47;;;;;;;;;;4971828;28;20058;-73
2022/09/06 12:49:36;;;;;;;15.20;2.83;;;;;;;;;;4967141;28;20291;-72
2022/09/06 12:52:14;;;;;;;5.85;2.13;;;;;;;;;;4957421;28;20561;-73
2022/09/06 12:54:46;;;;;;;9.75;2.67;;;;;;;;;;4963081;28;20515;-74
2022/09/06 12:57:21;;;;;;;6.28;2.17;;;;;;;;;;4972674;28;21054;-78
2022/09/06 12:59:54;;;;;;;7.78;2.53;;;;;;;;;;4965559;28;20374;-77
2022/09/06 13:02:47;;;;;;;13.85;2.45;;;;;;;;;;4967146;28;20105;-75
2022/09/06 13:05:13;;;;;;;9.48;2.67;;;;;;;;;;4966988;28;20046;-77
2022/09/06 13:07:44;;;;;;;13.48;2.70;;;;;;;;;;4968172;28;20129;-72
2022/09/06 13:10:13;;;;;;;10.73;2.70;;;;;;;;;;4968015;28;20043;-78
2022/09/06 13:12:44;;;;;;;8.05;2.35;;;;;;;;;;4969733;28;20089;-74
2022/09/06 13:15:16;;;;;;;17.63;2.53;;;;;;;;;;4973496;28;20055;-74
2022/09/06 13:17:42;;;;;;;11.90;2.35;;;;;;;;;;4965702;28;20134;-73
2022/09/06 13:20:13;;;;;;;7.03;2.33;;;;;;;;;;4965736;28;20044;-75
2022/09/06 13:22:50;;;;;;;6.45;2.22;;;;;;;;;;4970196;28;20047;-72
2022/09/06 13:25:24;;;;;;;4.40;2.00;;;;;;;;;;4969233;28;20122;-72
2022/09/06 13:27:56;;;;;;;6.43;2.20;;;;;;;;;;4973038;28;20077;-78
2022/09/06 13:30:44;;;;;;;9.20;2.28;;;;;;;;;;4958470;28;20468;-75
2022/09/06 13:33:25;;;;;;;12.23;2.55;;;;;;;;;;4971363;28;20098;-76
2022/09/06 13:36:04;;;;;;;7.85;2.28;;;;;;;;;;4968069;28;20066;-74
2022/09/06 13:38:48;;;;;;;8.82;2.20;;;;;;;;;;4963708;28;20423;-76
2022/09/06 13:41:26;;;;;;;6.95;2.25;;;;;;;;;;4964544;28;20039;-75
2022/09/06 13:44:03;;;;;;;8.43;2.38;;;;;;;;;;4964080;28;20041;-73
2022/09/06 13:46:34;;;;;;;13.77;2.50;;;;;;;;;;4972200;28;20051;-77
2022/09/06 13:49:01;;;;;;;9.90;2.20;;;;;;;;;;4943115;28;20042;-75
2022/09/06 13:51:28;;;;;;;10.80;1.92;;;;;;;;;;4970099;28;20635;-74
2022/09/06 13:54:04;;;;;;;9.45;1.83;;;;;;;;;;4967317;28;20097;-76
2022/09/06 13:56:30;;;;;;;8.73;2.10;;;;;;;;;;4956966;28;20082;-77
2022/09/06 13:58:56;;;;;;;6.80;2.15;;;;;;;;;;4966836;28;20047;-78
2022/09/06 14:01:22;;;;;;;4.85;1.70;;;;;;;;;;4968313;28;20461;-80
2022/09/06 14:03:48;;;;;;;8.35;1.80;;;;;;;;;;4962728;28;20042;-73
2022/09/06 14:06:15;;;;;;;9.38;1.80;;;;;;;;;;4965948;28;20055;-72
2022/09/06 14:08:41;;;;;;;10.23;1.75;;;;;;;;;;4960755;28;20150;-79
2022/09/06 14:11:08;;;;;;;7.65;1.60;;;;;;;;;;4965789;28;20501;-73
2022/09/06 14:13:34;;;;;;;8.98;1.98;;;;;;;;;;4964820;28;20141;-79
2022/09/06 14:16:00;;;;;;;12.93;2.08;;;;;;;;;;4956905;28;20517;-75
2022/09/06 14:18:26;;;;;;;12.90;2.20;;;;;;;;;;4967383;28;20074;-77
2022/09/06 14:20:54;;;;;;;9.52;2.03;;;;;;;;;;4971176;28;20134;-73
2022/09/06 14:23:20;;;;;;;5.47;1.40;;;;;;;;;;4961369;28;20050;-78
2022/09/06 14:25:53;;;;;;;5.38;1.70;;;;;;;;;;4960444;28;20397;-77
2022/09/06 14:28:20;;;;;;;4.60;1.50;;;;;;;;;;4971145;28;20081;-80
2022/09/06 14:30:46;;;;;;;6.80;1.58;;;;;;;;;;4971189;28;20493;-75
2022/09/06 14:33:11;;;;;;;12.25;2.00;;;;;;;;;;4975097;28;20152;-77
2022/09/06 14:35:41;;;;;;;6.72;1.90;;;;;;;;;;4968271;28;20058;-78
2022/09/06 14:38:07;;;;;;;9.95;1.95;;;;;;;;;;4963742;28;20466;-75
2022/09/06 14:40:35;;;;;;;10.70;1.98;;;;;;;;;;4969409;28;20051;-69
2022/09/06 14:43:01;;;;;;;7.38;2.22;;;;;;;;;;4961702;28;20523;-73
2022/09/06 14:45:27;;;;;;;7.53;1.90;;;;;;;;;;4966095;28;20070;-75
2022/09/06 14:47:53;;;;;;;12.80;2.95;;;;;;;;;;4943684;28;20132;-72
2022/09/06 14:50:20;;;;;;;10.20;2.22;;;;;;;;;;4961280;28;20119;-69
2022/09/06 14:52:46;;;;;;;10.85;2.03;;;;;;;;;;4962450;28;20133;-73
2022/09/06 14:55:12;;;;;;;8.13;2.20;;;;;;;;;;4966349;28;20129;-71
2022/09/06 14:57:38;;;;;;;6.93;1.85;;;;;;;;;;4964395;28;20065;-75
2022/09/06 15:00:07;;;;;;;7.95;2.40;;;;;;;;;;4964860;28;20051;-74